地図

経路データ

SID SEASON NUMBER BASIN SUBBASIN NAME ISO_TIME NATURE LAT LON WMO_WIND WMO_PRES WMO_AGENCY TRACK_TYPE DIST2LAND LANDFALL IFLAG USA_AGENCY USA_ATCF_ID USA_LAT USA_LON USA_RECORD USA_STATUS USA_WIND USA_PRES USA_SSHS USA_R34_NE USA_R34_SE USA_R34_SW USA_R34_NW USA_R50_NE USA_R50_SE USA_R50_SW USA_R50_NW USA_R64_NE USA_R64_SE USA_R64_SW USA_R64_NW USA_POCI USA_ROCI USA_RMW USA_EYE TOKYO_LAT TOKYO_LON TOKYO_GRADE TOKYO_WIND TOKYO_PRES TOKYO_R50_DIR TOKYO_R50_LONG TOKYO_R50_SHORT TOKYO_R30_DIR TOKYO_R30_LONG TOKYO_R30_SHORT TOKYO_LAND CMA_LAT CMA_LON CMA_CAT CMA_WIND CMA_PRES HKO_LAT HKO_LON HKO_CAT HKO_WIND HKO_PRES NEWDELHI_LAT NEWDELHI_LON NEWDELHI_GRADE NEWDELHI_WIND NEWDELHI_PRES NEWDELHI_CI NEWDELHI_DP NEWDELHI_POCI REUNION_LAT REUNION_LON REUNION_TYPE REUNION_WIND REUNION_PRES REUNION_TNUM REUNION_CI REUNION_RMW REUNION_R34_NE REUNION_R34_SE REUNION_R34_SW REUNION_R34_NW REUNION_R50_NE REUNION_R50_SE REUNION_R50_SW REUNION_R50_NW REUNION_R64_NE REUNION_R64_SE REUNION_R64_SW REUNION_R64_NW BOM_LAT BOM_LON BOM_TYPE BOM_WIND BOM_PRES BOM_TNUM BOM_CI BOM_RMW BOM_R34_NE BOM_R34_SE BOM_R34_SW BOM_R34_NW BOM_R50_NE BOM_R50_SE BOM_R50_SW BOM_R50_NW BOM_R64_NE BOM_R64_SE BOM_R64_SW BOM_R64_NW BOM_ROCI BOM_POCI BOM_EYE BOM_POS_METHOD BOM_PRES_METHOD NADI_LAT NADI_LON NADI_CAT NADI_WIND NADI_PRES WELLINGTON_LAT WELLINGTON_LON WELLINGTON_WIND WELLINGTON_PRES DS824_LAT DS824_LON DS824_STAGE DS824_WIND DS824_PRES TD9636_LAT TD9636_LON TD9636_STAGE TD9636_WIND TD9636_PRES TD9635_LAT TD9635_LON TD9635_WIND TD9635_PRES TD9635_ROCI NEUMANN_LAT NEUMANN_LON NEUMANN_CLASS NEUMANN_WIND NEUMANN_PRES MLC_LAT MLC_LON MLC_CLASS MLC_WIND MLC_PRES USA_GUST BOM_GUST BOM_GUST_PER REUNION_GUST REUNION_GUST_PER USA_SEAHGT USA_SEARAD_NE USA_SEARAD_SE USA_SEARAD_SW USA_SEARAD_NW STORM_SPEED STORM_DIR
1923179N12130 1923 38 WP MM NOT_NAMED 1923-06-27 22:00:00 NR 12.2000 129.700 main 445 432 __________O___ -1 12.2000 129.700 4 10 316
1923179N12130 1923 38 WP MM NOT_NAMED 1923-06-28 00:00:00 NR 12.4313 129.471 main 432 396 __________P___ -1 12.4313 129.471 4 10 316
1923179N12130 1923 38 WP MM NOT_NAMED 1923-06-28 03:00:00 NR 12.7789 129.119 main 396 361 __________P___ -1 12.7789 129.119 4 10 315
1923179N12130 1923 38 WP MM NOT_NAMED 1923-06-28 06:00:00 NR 13.1285 128.747 main 361 336 __________P___ -1 13.1285 128.747 4 10 313
1923179N12130 1923 38 WP MM NOT_NAMED 1923-06-28 09:00:00 NR 13.4814 128.344 main 336 332 __________P___ -1 13.4814 128.344 4 11 312
1923179N12130 1923 38 WP MM NOT_NAMED 1923-06-28 10:00:00 NR 13.6000 128.200 main 332 315 __________O___ -1 13.6000 128.200 4 11 310
1923179N12130 1923 38 WP MM NOT_NAMED 1923-06-28 12:00:00 NR 13.8385 127.898 main 315 303 __________P___ -1 13.8385 127.898 4 12 308
1923179N12130 1923 38 WP MM NOT_NAMED 1923-06-28 15:00:00 NR 14.1965 127.413 main 303 277 __________P___ -1 14.1965 127.413 4 12 306
1923179N12130 1923 38 WP MM NOT_NAMED 1923-06-28 18:00:00 NR 14.5490 126.902 main 277 242 __________P___ -1 14.5490 126.902 4 12 305
1923179N12130 1923 38 WP MM NOT_NAMED 1923-06-28 21:00:00 NR 14.8900 126.376 main 242 229 __________P___ -1 14.8900 126.376 4 12 304
1923179N12130 1923 38 WP MM NOT_NAMED 1923-06-28 22:00:00 NR 15.0000 126.200 main 229 217 __________O___ -1 15.0000 126.200 4 12 303
1923179N12130 1923 38 WP MM NOT_NAMED 1923-06-29 00:00:00 NR 15.2136 125.866 main 217 203 __________P___ -1 15.2136 125.866 4 12 303
1923179N12130 1923 38 WP MM NOT_NAMED 1923-06-29 03:00:00 NR 15.5217 125.359 main 205 199 __________P___ -1 15.5217 125.359 4 12 301
1923179N12130 1923 38 WP MM NOT_NAMED 1923-06-29 06:00:00 NR 15.8180 124.836 main 208 208 __________P___ -1 15.8180 124.836 4 12 300
1923179N12130 1923 38 WP MM NOT_NAMED 1923-06-29 09:00:00 NR 16.1055 124.289 main 211 187 __________P___ -1 16.1055 124.289 4 12 298
1923179N12130 1923 38 WP MM NOT_NAMED 1923-06-29 10:00:00 NR 16.2000 124.100 main 187 139 __________O___ -1 16.2000 124.100 4 13 298
1923179N12130 1923 38 WP MM NOT_NAMED 1923-06-29 12:00:00 NR 16.4102 123.691 main 139 67 __________P___ -1 16.4102 123.691 4 14 297
1923179N12130 1923 38 WP MM NOT_NAMED 1923-06-29 15:00:00 NR 16.7197 123.051 main 67 0 __________P___ -1 16.7197 123.051 4 14 296
1923179N12130 1923 38 WP MM NOT_NAMED 1923-06-29 18:00:00 NR 17.0024 122.408 main 0 0 __________P___ -1 17.0024 122.408 4 13 293
1923179N12130 1923 38 WP MM NOT_NAMED 1923-06-29 21:00:00 NR 17.2365 121.793 main 0 0 __________P___ -1 17.2365 121.793 4 12 291
1923179N12130 1923 38 WP MM NOT_NAMED 1923-06-29 22:00:00 NR 17.3000 121.600 main 0 0 __________O___ -1 17.3000 121.600 4 11 286
1923179N12130 1923 38 WP MM NOT_NAMED 1923-06-30 00:00:00 NR 17.3846 121.243 main 0 0 __________P___ -1 17.3846 121.243 4 10 281
1923179N12130 1923 38 WP MM NOT_NAMED 1923-06-30 03:00:00 NR 17.4613 120.746 main 0 0 __________P___ -1 17.4613 120.746 4 9 278
1923179N12130 1923 38 WP MM NOT_NAMED 1923-06-30 06:00:00 NR 17.5111 120.284 main 10 10 __________P___ -1 17.5111 120.284 4 9 277
1923179N12130 1923 38 WP MM NOT_NAMED 1923-06-30 09:00:00 NR 17.5712 119.844 main 53 53 __________P___ -1 17.5712 119.844 4 8 279
1923179N12130 1923 38 WP MM NOT_NAMED 1923-06-30 10:00:00 NR 17.6000 119.700 main 63 63 __________O___ -1 17.6000 119.700 4 9 287
1923179N12130 1923 38 WP MM NOT_NAMED 1923-06-30 12:00:00 NR 17.6989 119.398 main 96 96 __________P___ -1 17.6989 119.398 4 9 291
1923179N12130 1923 38 WP MM NOT_NAMED 1923-06-30 15:00:00 NR 17.8727 118.956 main 141 152 __________P___ -1 17.8727 118.956 4 9 294
1923179N12130 1923 38 WP MM NOT_NAMED 1923-06-30 18:00:00 NR 18.0605 118.532 main 198 198 __________P___ -1 18.0605 118.532 4 9 295
1923179N12130 1923 38 WP MM NOT_NAMED 1923-06-30 21:00:00 NR 18.2434 118.129 main 242 245 __________P___ -1 18.2434 118.129 4 8 295
1923179N12130 1923 38 WP MM NOT_NAMED 1923-06-30 22:00:00 NR 18.3000 118.000 main 255 255 __________O___ -1 18.3000 118.000 4 8 291
1923179N12130 1923 38 WP MM NOT_NAMED 1923-07-01 00:00:00 NR 18.3867 117.741 main 289 289 __________P___ -1 18.3867 117.741 4 8 289
1923179N12130 1923 38 WP MM NOT_NAMED 1923-07-01 03:00:00 NR 18.5041 117.372 main 322 322 __________P___ -1 18.5041 117.372 4 7 289
1923179N12130 1923 38 WP MM NOT_NAMED 1923-07-01 06:00:00 NR 18.6203 117.026 main 366 366 __________P___ -1 18.6203 117.026 4 7 291
1923179N12130 1923 38 WP MM NOT_NAMED 1923-07-01 09:00:00 NR 18.7507 116.703 main 403 403 __________P___ -1 18.7507 116.703 4 7 294
1923179N12130 1923 38 WP MM NOT_NAMED 1923-07-01 10:00:00 NR 18.8000 116.600 main 413 413 __________O___ -1 18.8000 116.600 4 7 300
1923179N12130 1923 38 WP MM NOT_NAMED 1923-07-01 12:00:00 NR 18.9160 116.397 main 429 400 __________P___ -1 18.9160 116.397 4 7 304
1923179N12130 1923 38 WP MM NOT_NAMED 1923-07-01 15:00:00 NR 19.1091 116.111 main 400 369 __________P___ -1 19.1091 116.111 4 7 307
1923179N12130 1923 38 WP MM NOT_NAMED 1923-07-01 18:00:00 NR 19.3168 115.842 main 369 340 __________P___ -1 19.3168 115.842 4 7 310
1923179N12130 1923 38 WP MM NOT_NAMED 1923-07-01 21:00:00 NR 19.5296 115.585 main 340 326 __________P___ -1 19.5296 115.585 4 6 311
1923179N12130 1923 38 WP MM NOT_NAMED 1923-07-01 22:00:00 NR 19.6000 115.500 main 326 308 __________O___ -1 19.6000 115.500 4 6 310
1923179N12130 1923 38 WP MM NOT_NAMED 1923-07-02 00:00:00 NR 19.7306 115.330 main 308 280 __________P___ -1 19.7306 115.330 4 6 310
1923179N12130 1923 38 WP MM NOT_NAMED 1923-07-02 03:00:00 NR 19.9265 115.082 main 280 251 __________P___ -1 19.9265 115.082 4 6 310
1923179N12130 1923 38 WP MM NOT_NAMED 1923-07-02 06:00:00 NR 20.1252 114.835 main 251 225 __________P___ -1 20.1252 114.835 4 6 311
1923179N12130 1923 38 WP MM NOT_NAMED 1923-07-02 09:00:00 NR 20.3299 114.585 main 225 213 __________P___ -1 20.3299 114.585 4 6 311
1923179N12130 1923 38 WP MM NOT_NAMED 1923-07-02 10:00:00 NR 20.4000 114.500 main 213 201 __________O___ -1 20.4000 114.500 4 6 311
1923179N12130 1923 38 WP MM NOT_NAMED 1923-07-02 12:00:00 NR 20.5434 114.325 main 201 167 __________P___ -1 20.5434 114.325 4 7 311
1923179N12130 1923 38 WP MM NOT_NAMED 1923-07-02 15:00:00 NR 20.7651 114.055 main 167 130 __________P___ -1 20.7651 114.055 4 7 311
1923179N12130 1923 38 WP MM NOT_NAMED 1923-07-02 18:00:00 NR 20.9926 113.777 main 130 93 __________P___ -1 20.9926 113.777 4 7 311
1923179N12130 1923 38 WP MM NOT_NAMED 1923-07-02 21:00:00 NR 21.2230 113.495 main 93 78 __________P___ -1 21.2230 113.495 4 7 311
1923179N12130 1923 38 WP MM NOT_NAMED 1923-07-02 22:00:00 NR 21.3000 113.400 main 78 __________O___ -1 21.3000 113.400 4 7 310

デジタル台風データ・検索

IBTrACS Databaseについて

本データベースは、米国NOAAが公開する1842年以降の世界の熱帯低気圧のベストトラックデータアーカイブInternational Best Track Archive for Climate Stewardship (IBTrACS)を、ウェブで閲覧しやすい形式に変換したものです。

最終更新日:2021-11-26